sensor_id;sensor_type;location;lat;lon;timestamp;pressure;altitude;pressure_sealevel;temperature;humidity
64687;BME280;51113;53.646;-113.674;2023-04-24T00:01:02;92686.69;;;14.57;24.04
64687;BME280;51113;53.646;-113.674;2023-04-24T00:03:31;92689.31;;;14.57;24.71
64687;BME280;51113;53.646;-113.674;2023-04-24T00:06:01;92691.63;;;14.58;25.01
64687;BME280;51113;53.646;-113.674;2023-04-24T00:08:30;92689.78;;;14.50;25.05
64687;BME280;51113;53.646;-113.674;2023-04-24T00:10:59;92666.69;;;14.26;24.92
64687;BME280;51113;53.646;-113.674;2023-04-24T00:13:28;92690.81;;;14.40;25.09
64687;BME280;51113;53.646;-113.674;2023-04-24T00:15:56;92690.03;;;14.31;25.70
64687;BME280;51113;53.646;-113.674;2023-04-24T00:18:24;92661.75;;;14.07;25.43
64687;BME280;51113;53.646;-113.674;2023-04-24T00:20:53;92696.81;;;14.23;25.29
64687;BME280;51113;53.646;-113.674;2023-04-24T00:23:22;92681.72;;;14.12;25.59
64687;BME280;51113;53.646;-113.674;2023-04-24T00:25:50;92685.88;;;14.04;25.69
64687;BME280;51113;53.646;-113.674;2023-04-24T00:28:20;92680.94;;;13.94;25.54
64687;BME280;51113;53.646;-113.674;2023-04-24T00:30:48;92677.25;;;13.95;25.95
64687;BME280;51113;53.646;-113.674;2023-04-24T00:33:17;92673.72;;;14.00;25.88
64687;BME280;51113;53.646;-113.674;2023-04-24T00:35:46;92680.31;;;13.97;26.02
64687;BME280;51113;53.646;-113.674;2023-04-24T00:38:14;92658.47;;;13.76;25.97
64687;BME280;51113;53.646;-113.674;2023-04-24T00:40:43;92689.53;;;13.95;25.83
64687;BME280;51113;53.646;-113.674;2023-04-24T00:43:12;92687.97;;;13.85;25.70
64687;BME280;51113;53.646;-113.674;2023-04-24T00:45:40;92686.59;;;13.87;25.56
64687;BME280;51113;53.646;-113.674;2023-04-24T00:48:09;92686.91;;;13.86;25.90
64687;BME280;51113;53.646;-113.674;2023-04-24T00:50:39;92680.63;;;13.87;25.32
64687;BME280;51113;53.646;-113.674;2023-04-24T00:53:07;92678.28;;;13.77;25.88
64687;BME280;51113;53.646;-113.674;2023-04-24T00:55:37;92676.28;;;13.74;25.64
64687;BME280;51113;53.646;-113.674;2023-04-24T00:58:05;92674.75;;;13.73;26.13
64687;BME280;51113;53.646;-113.674;2023-04-24T01:00:34;92677.38;;;13.73;26.02
64687;BME280;51113;53.646;-113.674;2023-04-24T01:03:04;92679.50;;;13.71;25.92
64687;BME280;51113;53.646;-113.674;2023-04-24T01:05:34;92675.97;;;13.67;26.31
64687;BME280;51113;53.646;-113.674;2023-04-24T01:08:02;92667.63;;;13.47;26.23
64687;BME280;51113;53.646;-113.674;2023-04-24T01:10:33;92682.84;;;13.63;26.23
64687;BME280;51113;53.646;-113.674;2023-04-24T01:13:03;92674.09;;;13.58;26.42
64687;BME280;51113;53.646;-113.674;2023-04-24T01:15:31;92664.09;;;13.52;26.20
64687;BME280;51113;53.646;-113.674;2023-04-24T01:18:00;92674.38;;;13.48;26.59
64687;BME280;51113;53.646;-113.674;2023-04-24T01:20:29;92660.09;;;13.46;26.46
64687;BME280;51113;53.646;-113.674;2023-04-24T01:23:00;92669.47;;;13.47;26.49
64687;BME280;51113;53.646;-113.674;2023-04-24T01:25:29;92661.47;;;13.43;26.79
64687;BME280;51113;53.646;-113.674;2023-04-24T01:27:59;92652.56;;;13.44;26.92
64687;BME280;51113;53.646;-113.674;2023-04-24T01:30:28;92627.03;;;13.24;26.66
64687;BME280;51113;53.646;-113.674;2023-04-24T01:32:58;92649.50;;;13.42;26.75
64687;BME280;51113;53.646;-113.674;2023-04-24T01:35:28;92651.00;;;13.35;27.05
64687;BME280;51113;53.646;-113.674;2023-04-24T01:37:56;92623.03;;;13.18;27.18
64687;BME280;51113;53.646;-113.674;2023-04-24T01:40:25;92649.78;;;13.41;26.50
64687;BME280;51113;53.646;-113.674;2023-04-24T01:42:54;92649.78;;;13.32;26.87
64687;BME280;51113;53.646;-113.674;2023-04-24T01:45:23;92651.31;;;13.33;26.82
64687;BME280;51113;53.646;-113.674;2023-04-24T01:47:52;92649.78;;;13.32;26.48
64687;BME280;51113;53.646;-113.674;2023-04-24T01:50:21;92621.13;;;13.10;26.65
64687;BME280;51113;53.646;-113.674;2023-04-24T01:52:50;92627.53;;;13.04;26.76
64687;BME280;51113;53.646;-113.674;2023-04-24T01:55:19;92621.88;;;13.10;27.14
64687;BME280;51113;53.646;-113.674;2023-04-24T01:57:47;92647.56;;;13.17;27.22
64687;BME280;51113;53.646;-113.674;2023-04-24T02:00:17;92651.34;;;13.11;27.38
64687;BME280;51113;53.646;-113.674;2023-04-24T02:02:46;92620.28;;;12.92;27.21
64687;BME280;51113;53.646;-113.674;2023-04-24T02:05:15;92657.50;;;13.15;27.21
64687;BME280;51113;53.646;-113.674;2023-04-24T02:07:44;92645.53;;;13.14;27.00
64687;BME280;51113;53.646;-113.674;2023-04-24T02:10:12;92645.81;;;13.12;27.24
64687;BME280;51113;53.646;-113.674;2023-04-24T02:12:41;92643.31;;;12.99;27.57
64687;BME280;51113;53.646;-113.674;2023-04-24T02:15:10;92647.97;;;13.10;27.15
64687;BME280;51113;53.646;-113.674;2023-04-24T02:17:39;92642.56;;;13.07;26.92
64687;BME280;51113;53.646;-113.674;2023-04-24T02:20:08;92652.50;;;12.96;27.42
64687;BME280;51113;53.646;-113.674;2023-04-24T02:22:37;92621.13;;;12.79;27.74
64687;BME280;51113;53.646;-113.674;2023-04-24T02:25:05;92647.59;;;12.94;27.43
64687;BME280;51113;53.646;-113.674;2023-04-24T02:27:34;92626.19;;;12.75;27.43
64687;BME280;51113;53.646;-113.674;2023-04-24T02:30:03;92644.16;;;12.85;27.60
64687;BME280;51113;53.646;-113.674;2023-04-24T02:32:32;92652.75;;;12.86;27.58
64687;BME280;51113;53.646;-113.674;2023-04-24T02:35:01;92651.22;;;12.85;27.76
64687;BME280;51113;53.646;-113.674;2023-04-24T02:37:30;92651.47;;;12.75;28.07
64687;BME280;51113;53.646;-113.674;2023-04-24T02:39:58;92623.06;;;12.65;27.38
64687;BME280;51113;53.646;-113.674;2023-04-24T02:42:27;92645.59;;;12.69;27.95
64687;BME280;51113;53.646;-113.674;2023-04-24T02:44:55;92627.84;;;12.49;27.94
64687;BME280;51113;53.646;-113.674;2023-04-24T02:47:23;92649.69;;;12.61;28.29
64687;BME280;51113;53.646;-113.674;2023-04-24T02:49:51;92656.31;;;12.68;27.96
64687;BME280;51113;53.646;-113.674;2023-04-24T02:52:20;92624.19;;;12.50;27.68
64687;BME280;51113;53.646;-113.674;2023-04-24T02:54:49;92653.38;;;12.60;28.51
64687;BME280;51113;53.646;-113.674;2023-04-24T02:57:17;92644.91;;;12.55;28.64
64687;BME280;51113;53.646;-113.674;2023-04-24T02:59:46;92623.25;;;12.46;28.23
64687;BME280;51113;53.646;-113.674;2023-04-24T03:02:15;92618.63;;;12.43;28.57
64687;BME280;51113;53.646;-113.674;2023-04-24T03:04:44;92656.56;;;12.57;28.71
64687;BME280;51113;53.646;-113.674;2023-04-24T03:07:12;92627.16;;;12.35;28.48
64687;BME280;51113;53.646;-113.674;2023-04-24T03:09:42;92652.66;;;12.46;28.88
64687;BME280;51113;53.646;-113.674;2023-04-24T03:12:11;92655.44;;;12.50;28.79
64687;BME280;51113;53.646;-113.674;2023-04-24T03:14:40;92651.06;;;12.37;29.22
64687;BME280;51113;53.646;-113.674;2023-04-24T03:17:08;92655.09;;;12.43;28.75
64687;BME280;51113;53.646;-113.674;2023-04-24T03:19:37;92660.88;;;12.40;28.90
64687;BME280;51113;53.646;-113.674;2023-04-24T03:22:07;92657.63;;;12.34;29.07
64687;BME280;51113;53.646;-113.674;2023-04-24T03:24:37;92660.34;;;12.29;28.88
64687;BME280;51113;53.646;-113.674;2023-04-24T03:27:05;92666.31;;;12.29;29.05
64687;BME280;51113;53.646;-113.674;2023-04-24T03:29:34;92658.97;;;12.32;28.88
64687;BME280;51113;53.646;-113.674;2023-04-24T03:32:03;92667.97;;;12.25;29.22
64687;BME280;51113;53.646;-113.674;2023-04-24T03:34:31;92659.41;;;12.25;29.26
64687;BME280;51113;53.646;-113.674;2023-04-24T03:37:00;92666.72;;;12.23;29.07
64687;BME280;51113;53.646;-113.674;2023-04-24T03:39:28;92672.41;;;12.25;29.26
64687;BME280;51113;53.646;-113.674;2023-04-24T03:41:57;92669.69;;;12.30;28.61
64687;BME280;51113;53.646;-113.674;2023-04-24T03:44:26;92670.28;;;12.27;28.80
64687;BME280;51113;53.646;-113.674;2023-04-24T03:46:54;92675.00;;;12.25;28.66
64687;BME280;51113;53.646;-113.674;2023-04-24T03:49:23;92662.09;;;12.20;29.00
64687;BME280;51113;53.646;-113.674;2023-04-24T03:51:52;92646.66;;;12.01;29.87
64687;BME280;51113;53.646;-113.674;2023-04-24T03:54:20;92654.72;;;12.13;29.02
64687;BME280;51113;53.646;-113.674;2023-04-24T03:56:49;92659.31;;;12.16;28.79
64687;BME280;51113;53.646;-113.674;2023-04-24T03:59:19;92660.97;;;12.12;29.12
64687;BME280;51113;53.646;-113.674;2023-04-24T04:01:47;92657.41;;;12.08;29.46
64687;BME280;51113;53.646;-113.674;2023-04-24T04:04:16;92660.50;;;12.10;28.96
64687;BME280;51113;53.646;-113.674;2023-04-24T04:06:46;92657.25;;;12.05;29.43
64687;BME280;51113;53.646;-113.674;2023-04-24T04:09:14;92674.97;;;12.03;29.14
64687;BME280;51113;53.646;-113.674;2023-04-24T04:11:43;92660.47;;;11.88;29.55
64687;BME280;51113;53.646;-113.674;2023-04-24T04:14:12;92644.28;;;11.77;29.61
64687;BME280;51113;53.646;-113.674;2023-04-24T04:16:40;92669.22;;;11.92;29.41
64687;BME280;51113;53.646;-113.674;2023-04-24T04:19:10;92661.53;;;11.87;28.94
64687;BME280;51113;53.646;-113.674;2023-04-24T04:21:39;92609.72;;;11.49;29.66
64687;BME280;51113;53.646;-113.674;2023-04-24T04:24:07;92661.16;;;11.80;29.77
64687;BME280;51113;53.646;-113.674;2023-04-24T04:26:38;92629.25;;;11.60;29.80
64687;BME280;51113;53.646;-113.674;2023-04-24T04:29:06;92654.28;;;11.70;30.35
64687;BME280;51113;53.646;-113.674;2023-04-24T04:31:35;92637.84;;;11.47;30.25
64687;BME280;51113;53.646;-113.674;2023-04-24T04:34:05;92661.44;;;11.64;30.45
64687;BME280;51113;53.646;-113.674;2023-04-24T04:36:33;92660.09;;;11.53;30.79
64687;BME280;51113;53.646;-113.674;2023-04-24T04:39:04;92645.06;;;11.50;31.12
64687;BME280;51113;53.646;-113.674;2023-04-24T04:41:33;92666.63;;;11.51;31.54
64687;BME280;51113;53.646;-113.674;2023-04-24T04:44:03;92654.69;;;11.50;31.37
64687;BME280;51113;53.646;-113.674;2023-04-24T04:46:32;92656.06;;;11.47;31.69
64687;BME280;51113;53.646;-113.674;2023-04-24T04:49:01;92651.53;;;11.39;31.56
64687;BME280;51113;53.646;-113.674;2023-04-24T04:51:31;92664.13;;;11.46;31.55
64687;BME280;51113;53.646;-113.674;2023-04-24T04:54:00;92631.50;;;11.26;32.29
64687;BME280;51113;53.646;-113.674;2023-04-24T04:56:29;92646.03;;;11.41;32.36
64687;BME280;51113;53.646;-113.674;2023-04-24T04:58:57;92652.88;;;11.37;31.97
64687;BME280;51113;53.646;-113.674;2023-04-24T05:01:27;92626.59;;;11.11;32.22
64687;BME280;51113;53.646;-113.674;2023-04-24T05:03:56;92649.78;;;11.21;32.76
64687;BME280;51113;53.646;-113.674;2023-04-24T05:06:25;92662.22;;;11.24;32.63
64687;BME280;51113;53.646;-113.674;2023-04-24T05:08:54;92655.09;;;11.16;32.85
64687;BME280;51113;53.646;-113.674;2023-04-24T05:11:25;92623.69;;;10.98;32.58
64687;BME280;51113;53.646;-113.674;2023-04-24T05:13:54;92654.13;;;11.12;32.77
64687;BME280;51113;53.646;-113.674;2023-04-24T05:16:22;92657.78;;;11.11;32.84
64687;BME280;51113;53.646;-113.674;2023-04-24T05:18:51;92650.66;;;11.03;33.16
64687;BME280;51113;53.646;-113.674;2023-04-24T05:21:20;92653.34;;;10.97;33.01
64687;BME280;51113;53.646;-113.674;2023-04-24T05:23:48;92624.06;;;10.78;33.03
64687;BME280;51113;53.646;-113.674;2023-04-24T05:26:18;92665.72;;;10.87;33.41
64687;BME280;51113;53.646;-113.674;2023-04-24T05:28:47;92654.56;;;10.86;33.46
64687;BME280;51113;53.646;-113.674;2023-04-24T05:31:16;92663.91;;;10.87;33.28
64687;BME280;51113;53.646;-113.674;2023-04-24T05:33:46;92627.78;;;10.58;33.69
64687;BME280;51113;53.646;-113.674;2023-04-24T05:36:14;92659.94;;;10.76;33.47
64687;BME280;51113;53.646;-113.674;2023-04-24T05:38:43;92654.81;;;10.71;33.58
64687;BME280;51113;53.646;-113.674;2023-04-24T05:41:11;92654.06;;;10.71;33.55
64687;BME280;51113;53.646;-113.674;2023-04-24T05:43:40;92651.91;;;10.59;34.21
64687;BME280;51113;53.646;-113.674;2023-04-24T05:46:08;92627.25;;;10.43;33.79
64687;BME280;51113;53.646;-113.674;2023-04-24T05:48:37;92647.00;;;10.57;33.78
64687;BME280;51113;53.646;-113.674;2023-04-24T05:51:09;92628.38;;;10.37;33.78
64687;BME280;51113;53.646;-113.674;2023-04-24T05:53:38;92654.03;;;10.57;33.32
64687;BME280;51113;53.646;-113.674;2023-04-24T05:56:07;92648.22;;;10.46;34.18
64687;BME280;51113;53.646;-113.674;2023-04-24T05:58:36;92656.09;;;10.41;34.52
64687;BME280;51113;53.646;-113.674;2023-04-24T06:01:05;92619.31;;;10.20;34.48
64687;BME280;51113;53.646;-113.674;2023-04-24T06:03:34;92651.34;;;10.29;34.88
64687;BME280;51113;53.646;-113.674;2023-04-24T06:06:03;92653.53;;;10.22;34.77
64687;BME280;51113;53.646;-113.674;2023-04-24T06:08:32;92639.50;;;10.23;35.32
64687;BME280;51113;53.646;-113.674;2023-04-24T06:11:01;92615.31;;;9.90;35.84
64687;BME280;51113;53.646;-113.674;2023-04-24T06:13:30;92644.53;;;9.96;36.04
64687;BME280;51113;53.646;-113.674;2023-04-24T06:15:59;92646.28;;;10.00;36.06
64687;BME280;51113;53.646;-113.674;2023-04-24T06:18:28;92646.91;;;9.92;36.45
64687;BME280;51113;53.646;-113.674;2023-04-24T06:20:56;92634.09;;;9.82;36.65
64687;BME280;51113;53.646;-113.674;2023-04-24T06:23:24;92617.47;;;9.64;36.56
64687;BME280;51113;53.646;-113.674;2023-04-24T06:25:53;92616.16;;;9.67;36.77
64687;BME280;51113;53.646;-113.674;2023-04-24T06:28:23;92640.66;;;9.75;37.03
64687;BME280;51113;53.646;-113.674;2023-04-24T06:30:52;92636.31;;;9.70;37.10
64687;BME280;51113;53.646;-113.674;2023-04-24T06:33:20;92630.16;;;9.66;37.39
64687;BME280;51113;53.646;-113.674;2023-04-24T06:35:49;92629.19;;;9.62;37.14
64687;BME280;51113;53.646;-113.674;2023-04-24T06:38:18;92622.31;;;9.52;37.49
64687;BME280;51113;53.646;-113.674;2023-04-24T06:40:47;92621.47;;;9.57;37.39
64687;BME280;51113;53.646;-113.674;2023-04-24T06:43:15;92629.78;;;9.54;37.51
64687;BME280;51113;53.646;-113.674;2023-04-24T06:45:44;92597.19;;;9.29;37.78
64687;BME280;51113;53.646;-113.674;2023-04-24T06:48:12;92625.94;;;9.51;37.68
64687;BME280;51113;53.646;-113.674;2023-04-24T06:50:41;92624.75;;;9.44;37.78
64687;BME280;51113;53.646;-113.674;2023-04-24T06:53:10;92604.97;;;9.29;37.54
64687;BME280;51113;53.646;-113.674;2023-04-24T06:55:40;92633.78;;;9.46;37.66
64687;BME280;51113;53.646;-113.674;2023-04-24T06:58:10;92591.31;;;9.23;37.65
64687;BME280;51113;53.646;-113.674;2023-04-24T07:00:39;92629.16;;;9.43;37.41
64687;BME280;51113;53.646;-113.674;2023-04-24T07:03:07;92623.47;;;9.41;38.00
64687;BME280;51113;53.646;-113.674;2023-04-24T07:05:36;92619.91;;;9.37;38.26
64687;BME280;51113;53.646;-113.674;2023-04-24T07:08:06;92630.19;;;9.42;37.70
64687;BME280;51113;53.646;-113.674;2023-04-24T07:10:34;92628.94;;;9.39;37.82
64687;BME280;51113;53.646;-113.674;2023-04-24T07:13:04;92636.44;;;9.41;37.85
64687;BME280;51113;53.646;-113.674;2023-04-24T07:15:32;92627.13;;;9.40;37.71
64687;BME280;51113;53.646;-113.674;2023-04-24T07:18:00;92630.03;;;9.33;38.12
64687;BME280;51113;53.646;-113.674;2023-04-24T07:20:31;92629.00;;;9.34;38.01
64687;BME280;51113;53.646;-113.674;2023-04-24T07:23:01;92622.81;;;9.30;38.03
64687;BME280;51113;53.646;-113.674;2023-04-24T07:25:30;92630.38;;;9.27;38.30
64687;BME280;51113;53.646;-113.674;2023-04-24T07:28:00;92609.06;;;9.11;38.14
64687;BME280;51113;53.646;-113.674;2023-04-24T07:30:28;92631.97;;;9.23;38.58
64687;BME280;51113;53.646;-113.674;2023-04-24T07:32:57;92631.06;;;9.14;38.48
64687;BME280;51113;53.646;-113.674;2023-04-24T07:35:26;92625.38;;;9.12;38.82
64687;BME280;51113;53.646;-113.674;2023-04-24T07:37:56;92629.00;;;9.11;38.78
64687;BME280;51113;53.646;-113.674;2023-04-24T07:40:24;92632.66;;;9.10;39.03
64687;BME280;51113;53.646;-113.674;2023-04-24T07:42:53;92627.81;;;9.03;39.15
64687;BME280;51113;53.646;-113.674;2023-04-24T07:45:22;92627.34;;;8.96;39.49
64687;BME280;51113;53.646;-113.674;2023-04-24T07:47:52;92623.13;;;9.05;38.93
64687;BME280;51113;53.646;-113.674;2023-04-24T07:50:20;92626.03;;;8.98;39.46
64687;BME280;51113;53.646;-113.674;2023-04-24T07:52:49;92621.41;;;8.95;39.58
64687;BME280;51113;53.646;-113.674;2023-04-24T07:55:18;92626.03;;;8.98;39.50
64687;BME280;51113;53.646;-113.674;2023-04-24T07:57:51;92615.03;;;8.88;39.53
64687;BME280;51113;53.646;-113.674;2023-04-24T08:00:20;92595.72;;;8.75;39.63
64687;BME280;51113;53.646;-113.674;2023-04-24T08:02:49;92622.50;;;8.89;39.88
64687;BME280;51113;53.646;-113.674;2023-04-24T08:05:18;92635.94;;;8.91;39.97
64687;BME280;51113;53.646;-113.674;2023-04-24T08:07:47;92624.09;;;8.85;40.32
64687;BME280;51113;53.646;-113.674;2023-04-24T08:10:18;92602.28;;;8.67;40.00
64687;BME280;51113;53.646;-113.674;2023-04-24T08:12:46;92599.69;;;8.67;40.31
64687;BME280;51113;53.646;-113.674;2023-04-24T08:15:15;92635.50;;;8.84;40.26
64687;BME280;51113;53.646;-113.674;2023-04-24T08:17:44;92633.97;;;8.83;40.58
64687;BME280;51113;53.646;-113.674;2023-04-24T08:20:13;92638.38;;;8.83;40.23
64687;BME280;51113;53.646;-113.674;2023-04-24T08:22:42;92626.78;;;8.75;41.06
64687;BME280;51113;53.646;-113.674;2023-04-24T08:25:11;92609.59;;;8.60;40.99
64687;BME280;51113;53.646;-113.674;2023-04-24T08:27:40;92608.09;;;8.54;40.92
64687;BME280;51113;53.646;-113.674;2023-04-24T08:30:09;92614.28;;;8.58;41.26
64687;BME280;51113;53.646;-113.674;2023-04-24T08:32:39;92651.72;;;8.66;41.23
64687;BME280;51113;53.646;-113.674;2023-04-24T08:35:07;92617.72;;;8.49;41.17
64687;BME280;51113;53.646;-113.674;2023-04-24T08:37:37;92658.41;;;8.72;41.46
64687;BME280;51113;53.646;-113.674;2023-04-24T08:40:14;92613.13;;;8.40;41.81
64687;BME280;51113;53.646;-113.674;2023-04-24T08:42:43;92618.81;;;8.43;42.26
64687;BME280;51113;53.646;-113.674;2023-04-24T08:45:12;92652.31;;;8.58;42.30
64687;BME280;51113;53.646;-113.674;2023-04-24T08:47:41;92624.31;;;8.31;42.52
64687;BME280;51113;53.646;-113.674;2023-04-24T08:50:11;92665.34;;;8.48;42.79
64687;BME280;51113;53.646;-113.674;2023-04-24T08:52:42;92650.03;;;8.51;42.58
64687;BME280;51113;53.646;-113.674;2023-04-24T08:55:10;92657.06;;;8.46;42.46
64687;BME280;51113;53.646;-113.674;2023-04-24T08:57:40;92662.84;;;8.37;43.35
64687;BME280;51113;53.646;-113.674;2023-04-24T09:00:10;92630.97;;;8.08;43.42
64687;BME280;51113;53.646;-113.674;2023-04-24T09:02:45;92662.09;;;8.27;43.41
64687;BME280;51113;53.646;-113.674;2023-04-24T09:05:17;92659.03;;;8.25;43.33
64687;BME280;51113;53.646;-113.674;2023-04-24T09:07:50;92657.78;;;8.17;43.95
64687;BME280;51113;53.646;-113.674;2023-04-24T09:10:25;92659.38;;;8.13;44.04
64687;BME280;51113;53.646;-113.674;2023-04-24T09:12:54;92661.75;;;8.04;43.98
64687;BME280;51113;53.646;-113.674;2023-04-24T09:15:24;92664.09;;;8.01;44.50
64687;BME280;51113;53.646;-113.674;2023-04-24T09:17:53;92671.63;;;7.97;44.98
64687;BME280;51113;53.646;-113.674;2023-04-24T09:20:22;92666.25;;;7.89;45.02
64687;BME280;51113;53.646;-113.674;2023-04-24T09:22:54;92670.41;;;7.85;44.72
64687;BME280;51113;53.646;-113.674;2023-04-24T09:25:31;92631.56;;;7.51;45.49
64687;BME280;51113;53.646;-113.674;2023-04-24T09:28:03;92672.06;;;7.65;46.03
64687;BME280;51113;53.646;-113.674;2023-04-24T09:30:33;92674.41;;;7.57;46.49
64687;BME280;51113;53.646;-113.674;2023-04-24T09:33:14;92673.44;;;7.48;46.11
64687;BME280;51113;53.646;-113.674;2023-04-24T09:35:50;92679.06;;;7.55;46.13
64687;BME280;51113;53.646;-113.674;2023-04-24T09:38:31;92683.75;;;7.53;46.51
64687;BME280;51113;53.646;-113.674;2023-04-24T09:41:07;92679.63;;;7.47;46.14
64687;BME280;51113;53.646;-113.674;2023-04-24T09:43:36;92685.84;;;7.45;46.39
64687;BME280;51113;53.646;-113.674;2023-04-24T09:46:07;92655.19;;;7.24;46.64
64687;BME280;51113;53.646;-113.674;2023-04-24T09:48:38;92692.31;;;7.38;46.80
64687;BME280;51113;53.646;-113.674;2023-04-24T09:51:06;92679.94;;;7.30;47.50
64687;BME280;51113;53.646;-113.674;2023-04-24T09:53:45;92679.44;;;7.28;47.55
64687;BME280;51113;53.646;-113.674;2023-04-24T09:56:15;92681.03;;;7.13;47.57
64687;BME280;51113;53.646;-113.674;2023-04-24T09:58:46;92681.84;;;7.04;48.00
64687;BME280;51113;53.646;-113.674;2023-04-24T10:01:16;92686.25;;;6.98;48.75
64687;BME280;51113;53.646;-113.674;2023-04-24T10:03:45;92684.69;;;6.92;48.52
64687;BME280;51113;53.646;-113.674;2023-04-24T10:06:14;92684.69;;;6.92;49.08
64687;BME280;51113;53.646;-113.674;2023-04-24T10:08:43;92693.25;;;6.83;49.27
64687;BME280;51113;53.646;-113.674;2023-04-24T10:11:14;92653.81;;;6.57;49.17
64687;BME280;51113;53.646;-113.674;2023-04-24T10:13:43;92691.44;;;6.73;49.31
64687;BME280;51113;53.646;-113.674;2023-04-24T10:16:13;92690.94;;;6.66;49.49
64687;BME280;51113;53.646;-113.674;2023-04-24T10:18:43;92695.59;;;6.59;49.83
64687;BME280;51113;53.646;-113.674;2023-04-24T10:21:12;92696.63;;;6.58;50.47
64687;BME280;51113;53.646;-113.674;2023-04-24T10:23:41;92693.53;;;6.45;50.72
64687;BME280;51113;53.646;-113.674;2023-04-24T10:26:12;92698.44;;;6.42;50.86
64687;BME280;51113;53.646;-113.674;2023-04-24T10:28:47;92705.91;;;6.38;50.96
64687;BME280;51113;53.646;-113.674;2023-04-24T10:31:15;92711.56;;;6.35;50.82
64687;BME280;51113;53.646;-113.674;2023-04-24T10:33:45;92707.19;;;6.31;51.05
64687;BME280;51113;53.646;-113.674;2023-04-24T10:36:15;92709.50;;;6.22;51.46
64687;BME280;51113;53.646;-113.674;2023-04-24T10:38:46;92714.91;;;6.26;51.65
64687;BME280;51113;53.646;-113.674;2023-04-24T10:41:18;92721.09;;;6.20;51.97
64687;BME280;51113;53.646;-113.674;2023-04-24T10:44:10;92716.72;;;6.15;51.87
64687;BME280;51113;53.646;-113.674;2023-04-24T10:46:43;92658.13;;;5.70;51.78
64687;BME280;51113;53.646;-113.674;2023-04-24T10:49:12;92721.06;;;6.04;52.27
64687;BME280;51113;53.646;-113.674;2023-04-24T10:51:51;92699.34;;;5.80;52.34
64687;BME280;51113;53.646;-113.674;2023-04-24T10:54:29;92726.22;;;5.94;53.21
64687;BME280;51113;53.646;-113.674;2023-04-24T11:02:38;92724.06;;;5.76;54.10
64687;BME280;51113;53.646;-113.674;2023-04-24T11:05:08;92721.75;;;5.74;53.99
64687;BME280;51113;53.646;-113.674;2023-04-24T11:08:11;92723.03;;;5.72;53.76
64687;BME280;51113;53.646;-113.674;2023-04-24T11:10:43;92687.16;;;5.50;54.36
64687;BME280;51113;53.646;-113.674;2023-04-24T11:13:21;92723.00;;;5.67;54.19
64687;BME280;51113;53.646;-113.674;2023-04-24T11:16:13;92732.28;;;5.68;54.68
64687;BME280;51113;53.646;-113.674;2023-04-24T11:18:42;92734.34;;;5.66;55.02
64687;BME280;51113;53.646;-113.674;2023-04-24T11:21:18;92721.19;;;5.57;54.14
64687;BME280;51113;53.646;-113.674;2023-04-24T11:23:47;92722.94;;;5.46;54.77
64687;BME280;51113;53.646;-113.674;2023-04-24T11:26:21;92740.25;;;5.61;54.44
64687;BME280;51113;53.646;-113.674;2023-04-24T11:28:52;92708.00;;;5.48;54.66
64687;BME280;51113;53.646;-113.674;2023-04-24T11:31:37;92737.94;;;5.65;55.07
64687;BME280;51113;53.646;-113.674;2023-04-24T11:34:11;92741.53;;;5.64;54.93
64687;BME280;51113;53.646;-113.674;2023-04-24T11:36:43;92731.47;;;5.57;55.22
64687;BME280;51113;53.646;-113.674;2023-04-24T11:39:12;92727.09;;;5.53;55.08
64687;BME280;51113;53.646;-113.674;2023-04-24T11:41:41;92730.16;;;5.49;55.57
64687;BME280;51113;53.646;-113.674;2023-04-24T11:44:10;92729.94;;;5.56;55.34
64687;BME280;51113;53.646;-113.674;2023-04-24T11:46:40;92726.03;;;5.48;56.02
64687;BME280;51113;53.646;-113.674;2023-04-24T11:49:09;92695.03;;;5.23;55.79
64687;BME280;51113;53.646;-113.674;2023-04-24T11:51:38;92730.91;;;5.45;55.82
64687;BME280;51113;53.646;-113.674;2023-04-24T11:54:19;92723.16;;;5.40;56.29
64687;BME280;51113;53.646;-113.674;2023-04-24T11:56:50;92714.34;;;5.26;55.80
64687;BME280;51113;53.646;-113.674;2023-04-24T11:59:19;92740.19;;;5.46;56.01
64687;BME280;51113;53.646;-113.674;2023-04-24T12:01:48;92742.25;;;5.44;55.99
64687;BME280;51113;53.646;-113.674;2023-04-24T12:04:18;92750.91;;;5.28;56.56
64687;BME280;51113;53.646;-113.674;2023-04-24T12:07:01;92756.31;;;5.26;56.68
64687;BME280;51113;53.646;-113.674;2023-04-24T12:09:43;92757.59;;;5.24;57.07
64687;BME280;51113;53.646;-113.674;2023-04-24T12:12:15;92752.66;;;5.17;56.62
64687;BME280;51113;53.646;-113.674;2023-04-24T12:14:49;92757.53;;;5.13;57.20
64687;BME280;51113;53.646;-113.674;2023-04-24T12:17:23;92766.25;;;5.07;57.71
64687;BME280;51113;53.646;-113.674;2023-04-24T12:20:02;92774.97;;;5.06;57.51
64687;BME280;51113;53.646;-113.674;2023-04-24T12:22:47;92762.13;;;5.06;57.89
64687;BME280;51113;53.646;-113.674;2023-04-24T12:25:17;92776.75;;;5.01;57.90
64687;BME280;51113;53.646;-113.674;2023-04-24T12:27:53;92776.19;;;4.94;58.30
64687;BME280;51113;53.646;-113.674;2023-04-24T12:30:27;92767.69;;;4.93;58.26
64687;BME280;51113;53.646;-113.674;2023-04-24T12:33:00;92767.69;;;4.93;58.05
64687;BME280;51113;53.646;-113.674;2023-04-24T12:35:30;92769.47;;;4.88;57.87
64687;BME280;51113;53.646;-113.674;2023-04-24T12:38:10;92766.06;;;4.82;58.38
64687;BME280;51113;53.646;-113.674;2023-04-24T12:40:41;92775.03;;;4.74;58.34
64687;BME280;51113;53.646;-113.674;2023-04-24T12:43:20;92780.41;;;4.73;58.07
64687;BME280;51113;53.646;-113.674;2023-04-24T12:45:49;92779.88;;;4.71;58.37
64687;BME280;51113;53.646;-113.674;2023-04-24T12:48:17;92786.50;;;4.62;58.98
64687;BME280;51113;53.646;-113.674;2023-04-24T12:50:46;92785.91;;;4.54;59.30
64687;BME280;51113;53.646;-113.674;2023-04-24T12:53:14;92762.75;;;4.22;59.42
64687;BME280;51113;53.646;-113.674;2023-04-24T12:55:45;92757.81;;;4.16;59.18